sensor_id;sensor_type;location;lat;lon;timestamp;pressure;altitude;pressure_sealevel;temperature;humidity
7774;BME280;3931;42.260;23.116;2023-02-17T00:00:33;96567.63;;;7.11;64.29
7774;BME280;3931;42.260;23.116;2023-02-17T00:03:00;96572.69;;;7.02;64.16
7774;BME280;3931;42.260;23.116;2023-02-17T00:05:26;96567.00;;;6.59;65.67
7774;BME280;3931;42.260;23.116;2023-02-17T00:07:53;96564.06;;;6.28;67.90
7774;BME280;3931;42.260;23.116;2023-02-17T00:10:19;96562.66;;;6.58;66.49
7774;BME280;3931;42.260;23.116;2023-02-17T00:12:45;96565.41;;;6.58;66.32
7774;BME280;3931;42.260;23.116;2023-02-17T00:15:11;96565.97;;;6.89;65.12
7774;BME280;3931;42.260;23.116;2023-02-17T00:17:37;96568.69;;;6.82;65.01
7774;BME280;3931;42.260;23.116;2023-02-17T00:20:05;96561.19;;;6.79;64.30
7774;BME280;3931;42.260;23.116;2023-02-17T00:22:32;96570.03;;;6.44;66.44
7774;BME280;3931;42.260;23.116;2023-02-17T00:24:58;96564.41;;;6.23;66.96
7774;BME280;3931;42.260;23.116;2023-02-17T00:27:24;96557.75;;;6.27;68.27
7774;BME280;3931;42.260;23.116;2023-02-17T00:29:50;96563.50;;;6.66;66.07
7774;BME280;3931;42.260;23.116;2023-02-17T00:32:16;96552.81;;;6.47;66.64
7774;BME280;3931;42.260;23.116;2023-02-17T00:34:42;96556.91;;;6.85;65.12
7774;BME280;3931;42.260;23.116;2023-02-17T00:37:09;96549.03;;;6.11;67.36
7774;BME280;3931;42.260;23.116;2023-02-17T00:39:35;96550.81;;;5.89;69.36
7774;BME280;3931;42.260;23.116;2023-02-17T00:42:01;96548.34;;;5.77;69.76
7774;BME280;3931;42.260;23.116;2023-02-17T00:44:27;96551.44;;;5.72;71.31
7774;BME280;3931;42.260;23.116;2023-02-17T00:46:53;96553.75;;;6.14;69.97
7774;BME280;3931;42.260;23.116;2023-02-17T00:49:21;96551.06;;;6.21;69.78
7774;BME280;3931;42.260;23.116;2023-02-17T00:51:48;96538.34;;;6.60;66.91
7774;BME280;3931;42.260;23.116;2023-02-17T00:54:15;96538.97;;;6.33;65.32
7774;BME280;3931;42.260;23.116;2023-02-17T00:56:42;96533.97;;;5.91;67.59
7774;BME280;3931;42.260;23.116;2023-02-17T00:59:09;96534.97;;;5.72;69.79
7774;BME280;3931;42.260;23.116;2023-02-17T01:01:37;96534.94;;;5.69;70.19
7774;BME280;3931;42.260;23.116;2023-02-17T01:04:04;96530.94;;;5.59;71.34
7774;BME280;3931;42.260;23.116;2023-02-17T01:06:32;96534.91;;;6.13;69.21
7774;BME280;3931;42.260;23.116;2023-02-17T01:08:58;96539.16;;;6.03;69.06
7774;BME280;3931;42.260;23.116;2023-02-17T01:11:27;96532.59;;;5.71;70.31
7774;BME280;3931;42.260;23.116;2023-02-17T01:13:54;96531.56;;;5.86;70.37
7774;BME280;3931;42.260;23.116;2023-02-17T01:16:22;96536.97;;;6.26;68.56
7774;BME280;3931;42.260;23.116;2023-02-17T01:18:48;96531.88;;;6.28;68.42
7774;BME280;3931;42.260;23.116;2023-02-17T01:21:16;96528.56;;;6.05;69.26
7774;BME280;3931;42.260;23.116;2023-02-17T01:23:42;96523.72;;;5.84;71.35
7774;BME280;3931;42.260;23.116;2023-02-17T01:26:13;96528.72;;;6.30;69.32
7774;BME280;3931;42.260;23.116;2023-02-17T01:28:39;96527.75;;;6.01;69.74
7774;BME280;3931;42.260;23.116;2023-02-17T01:31:06;96521.78;;;5.88;71.25
7774;BME280;3931;42.260;23.116;2023-02-17T01:33:32;96519.84;;;5.93;72.84
7774;BME280;3931;42.260;23.116;2023-02-17T01:36:00;96527.06;;;6.11;70.93
7774;BME280;3931;42.260;23.116;2023-02-17T01:38:26;96534.72;;;6.46;68.83
7774;BME280;3931;42.260;23.116;2023-02-17T01:40:52;96535.59;;;6.60;67.32
7774;BME280;3931;42.260;23.116;2023-02-17T01:43:19;96535.31;;;6.15;67.28
7774;BME280;3931;42.260;23.116;2023-02-17T01:45:50;96542.84;;;5.77;71.46
7774;BME280;3931;42.260;23.116;2023-02-17T01:48:18;96538.53;;;5.36;72.67
7774;BME280;3931;42.260;23.116;2023-02-17T01:50:50;96535.97;;;5.54;72.48
7774;BME280;3931;42.260;23.116;2023-02-17T01:53:22;96536.34;;;5.93;69.42
7774;BME280;3931;42.260;23.116;2023-02-17T01:55:50;96537.50;;;5.51;70.49
7774;BME280;3931;42.260;23.116;2023-02-17T01:58:18;96532.84;;;5.15;72.79
7774;BME280;3931;42.260;23.116;2023-02-17T02:00:47;96533.19;;;5.10;74.21
7774;BME280;3931;42.260;23.116;2023-02-17T02:03:14;96544.41;;;4.98;73.69
7774;BME280;3931;42.260;23.116;2023-02-17T02:05:41;96538.66;;;5.06;73.64
7774;BME280;3931;42.260;23.116;2023-02-17T02:08:08;96535.44;;;5.01;73.75
7774;BME280;3931;42.260;23.116;2023-02-17T02:10:35;96551.16;;;4.71;77.26
7774;BME280;3931;42.260;23.116;2023-02-17T02:13:02;96541.81;;;5.12;76.93
7774;BME280;3931;42.260;23.116;2023-02-17T02:15:32;96538.53;;;5.33;75.40
7774;BME280;3931;42.260;23.116;2023-02-17T02:18:15;96530.84;;;5.12;74.93
7774;BME280;3931;42.260;23.116;2023-02-17T02:21:07;96531.34;;;5.21;74.11
7774;BME280;3931;42.260;23.116;2023-02-17T02:24:07;96535.81;;;5.36;74.14
7774;BME280;3931;42.260;23.116;2023-02-17T02:33:03;96524.88;;;5.03;75.95
7774;BME280;3931;42.260;23.116;2023-02-17T02:35:36;96520.84;;;5.27;75.41
7774;BME280;3931;42.260;23.116;2023-02-17T02:38:16;96520.72;;;5.16;75.56
7774;BME280;3931;42.260;23.116;2023-02-17T02:40:46;96520.53;;;4.65;76.76
7774;BME280;3931;42.260;23.116;2023-02-17T02:43:15;96527.66;;;4.73;77.40
7774;BME280;3931;42.260;23.116;2023-02-17T02:45:42;96514.09;;;4.84;76.50
7774;BME280;3931;42.260;23.116;2023-02-17T02:48:08;96523.81;;;4.18;80.28
7774;BME280;3931;42.260;23.116;2023-02-17T02:50:46;96528.09;;;4.16;83.13
7774;BME280;3931;42.260;23.116;2023-02-17T02:53:43;96520.19;;;4.37;81.70
7774;BME280;3931;42.260;23.116;2023-02-17T02:56:16;96522.34;;;3.98;82.48
7774;BME280;3931;42.260;23.116;2023-02-17T02:58:50;96515.66;;;3.69;87.75
7774;BME280;3931;42.260;23.116;2023-02-17T03:01:26;96521.22;;;4.59;84.30
7774;BME280;3931;42.260;23.116;2023-02-17T03:04:01;96517.75;;;4.32;84.17
7774;BME280;3931;42.260;23.116;2023-02-17T03:06:35;96514.22;;;4.31;86.70
7774;BME280;3931;42.260;23.116;2023-02-17T03:09:05;96516.72;;;5.10;81.75
7774;BME280;3931;42.260;23.116;2023-02-17T03:11:33;96527.88;;;5.68;76.81
7774;BME280;3931;42.260;23.116;2023-02-17T03:14:01;96533.38;;;5.71;73.86
7774;BME280;3931;42.260;23.116;2023-02-17T03:16:27;96531.91;;;5.00;77.21
7774;BME280;3931;42.260;23.116;2023-02-17T03:18:54;96532.44;;;5.13;79.65
7774;BME280;3931;42.260;23.116;2023-02-17T03:21:21;96528.38;;;5.37;79.64
7774;BME280;3931;42.260;23.116;2023-02-17T03:23:47;96533.06;;;5.36;79.00
7774;BME280;3931;42.260;23.116;2023-02-17T03:26:13;96531.81;;;5.70;76.89
7774;BME280;3931;42.260;23.116;2023-02-17T03:28:39;96528.94;;;5.56;75.67
7774;BME280;3931;42.260;23.116;2023-02-17T03:31:05;96541.53;;;5.61;77.31
7774;BME280;3931;42.260;23.116;2023-02-17T03:33:31;96540.66;;;5.94;74.27
7774;BME280;3931;42.260;23.116;2023-02-17T03:35:57;96538.06;;;6.15;72.63
7774;BME280;3931;42.260;23.116;2023-02-17T03:38:24;96536.84;;;6.09;72.23
7774;BME280;3931;42.260;23.116;2023-02-17T03:40:50;96536.59;;;5.80;73.03
7774;BME280;3931;42.260;23.116;2023-02-17T03:43:17;96539.50;;;5.54;74.12
7774;BME280;3931;42.260;23.116;2023-02-17T03:45:43;96534.34;;;5.89;71.44
7774;BME280;3931;42.260;23.116;2023-02-17T03:48:09;96541.94;;;6.10;69.64
7774;BME280;3931;42.260;23.116;2023-02-17T03:50:35;96535.34;;;5.71;70.78
7774;BME280;3931;42.260;23.116;2023-02-17T03:53:01;96543.44;;;5.53;72.15
7774;BME280;3931;42.260;23.116;2023-02-17T03:55:30;96542.09;;;5.37;73.79
7774;BME280;3931;42.260;23.116;2023-02-17T03:57:56;96545.94;;;5.72;72.87
7774;BME280;3931;42.260;23.116;2023-02-17T04:00:22;96549.50;;;5.33;73.52
7774;BME280;3931;42.260;23.116;2023-02-17T04:02:48;96553.84;;;5.37;72.67
7774;BME280;3931;42.260;23.116;2023-02-17T04:05:14;96553.41;;;4.95;75.36
7774;BME280;3931;42.260;23.116;2023-02-17T04:07:40;96548.06;;;5.09;76.69
7774;BME280;3931;42.260;23.116;2023-02-17T04:10:07;96548.50;;;5.11;76.54
7774;BME280;3931;42.260;23.116;2023-02-17T04:12:34;96536.94;;;5.32;76.51
7774;BME280;3931;42.260;23.116;2023-02-17T04:15:00;96543.94;;;5.69;74.43
7774;BME280;3931;42.260;23.116;2023-02-17T04:17:26;96550.44;;;5.91;72.74
7774;BME280;3931;42.260;23.116;2023-02-17T04:19:52;96543.53;;;5.64;72.55
7774;BME280;3931;42.260;23.116;2023-02-17T04:22:18;96538.78;;;5.61;72.04
7774;BME280;3931;42.260;23.116;2023-02-17T04:24:44;96549.16;;;5.04;72.27
7774;BME280;3931;42.260;23.116;2023-02-17T04:27:10;96552.72;;;4.72;74.47
7774;BME280;3931;42.260;23.116;2023-02-17T04:29:37;96552.97;;;4.60;76.21
7774;BME280;3931;42.260;23.116;2023-02-17T04:32:03;96548.81;;;4.73;77.04
7774;BME280;3931;42.260;23.116;2023-02-17T04:34:29;96555.59;;;4.53;77.14
7774;BME280;3931;42.260;23.116;2023-02-17T04:36:55;96546.50;;;4.45;78.85
7774;BME280;3931;42.260;23.116;2023-02-17T04:39:21;96553.16;;;4.18;80.00
7774;BME280;3931;42.260;23.116;2023-02-17T04:41:47;96546.94;;;4.21;79.43
7774;BME280;3931;42.260;23.116;2023-02-17T04:44:13;96554.13;;;4.59;76.58
7774;BME280;3931;42.260;23.116;2023-02-17T04:46:40;96550.34;;;4.70;76.44
7774;BME280;3931;42.260;23.116;2023-02-17T04:49:06;96549.63;;;5.10;74.13
7774;BME280;3931;42.260;23.116;2023-02-17T04:51:32;96547.81;;;5.21;72.19
7774;BME280;3931;42.260;23.116;2023-02-17T04:53:58;96542.41;;;5.32;72.13
7774;BME280;3931;42.260;23.116;2023-02-17T04:56:24;96542.47;;;4.69;75.40
7774;BME280;3931;42.260;23.116;2023-02-17T04:58:50;96541.84;;;4.79;77.28
7774;BME280;3931;42.260;23.116;2023-02-17T05:01:16;96537.97;;;5.20;75.19
7774;BME280;3931;42.260;23.116;2023-02-17T05:03:43;96544.00;;;4.96;75.50
7774;BME280;3931;42.260;23.116;2023-02-17T05:06:09;96546.91;;;5.10;76.54
7774;BME280;3931;42.260;23.116;2023-02-17T05:08:35;96551.69;;;4.83;77.24
7774;BME280;3931;42.260;23.116;2023-02-17T05:11:01;96552.06;;;4.82;79.87
7774;BME280;3931;42.260;23.116;2023-02-17T05:13:27;96547.72;;;4.77;76.55
7774;BME280;3931;42.260;23.116;2023-02-17T05:15:53;96552.81;;;4.49;77.33
7774;BME280;3931;42.260;23.116;2023-02-17T05:18:19;96554.53;;;4.61;76.57
7774;BME280;3931;42.260;23.116;2023-02-17T05:20:45;96568.06;;;4.20;77.13
7774;BME280;3931;42.260;23.116;2023-02-17T05:23:11;96559.06;;;4.50;76.30
7774;BME280;3931;42.260;23.116;2023-02-17T05:25:37;96567.72;;;4.81;76.04
7774;BME280;3931;42.260;23.116;2023-02-17T05:28:05;96561.84;;;4.83;75.59
7774;BME280;3931;42.260;23.116;2023-02-17T05:30:31;96565.94;;;4.96;75.02
7774;BME280;3931;42.260;23.116;2023-02-17T05:32:57;96551.88;;;5.01;76.24
7774;BME280;3931;42.260;23.116;2023-02-17T05:35:23;96561.69;;;5.35;73.28
7774;BME280;3931;42.260;23.116;2023-02-17T05:37:50;96564.28;;;5.65;71.99
7774;BME280;3931;42.260;23.116;2023-02-17T05:40:16;96554.81;;;5.55;71.57
7774;BME280;3931;42.260;23.116;2023-02-17T05:42:42;96560.00;;;5.67;71.49
7774;BME280;3931;42.260;23.116;2023-02-17T05:45:09;96568.88;;;5.13;71.87
7774;BME280;3931;42.260;23.116;2023-02-17T05:47:35;96572.00;;;5.49;72.62
7774;BME280;3931;42.260;23.116;2023-02-17T05:50:01;96570.00;;;5.86;70.02
7774;BME280;3931;42.260;23.116;2023-02-17T05:52:27;96579.69;;;5.76;69.35
7774;BME280;3931;42.260;23.116;2023-02-17T05:54:54;96584.72;;;5.67;69.38
7774;BME280;3931;42.260;23.116;2023-02-17T05:57:20;96583.91;;;5.63;68.66
7774;BME280;3931;42.260;23.116;2023-02-17T05:59:46;96586.16;;;5.54;68.01
7774;BME280;3931;42.260;23.116;2023-02-17T06:02:12;96602.47;;;5.77;68.36
7774;BME280;3931;42.260;23.116;2023-02-17T06:04:38;96598.66;;;5.52;68.18
7774;BME280;3931;42.260;23.116;2023-02-17T06:07:04;96609.72;;;5.59;69.13
7774;BME280;3931;42.260;23.116;2023-02-17T06:09:30;96597.91;;;5.92;67.85
7774;BME280;3931;42.260;23.116;2023-02-17T06:11:57;96617.06;;;5.48;70.34
7774;BME280;3931;42.260;23.116;2023-02-17T06:14:23;96609.34;;;4.90;71.85
7774;BME280;3931;42.260;23.116;2023-02-17T06:16:49;96605.53;;;5.72;68.93
7774;BME280;3931;42.260;23.116;2023-02-17T06:19:15;96610.06;;;5.91;67.76
7774;BME280;3931;42.260;23.116;2023-02-17T06:21:41;96611.81;;;6.09;66.35
7774;BME280;3931;42.260;23.116;2023-02-17T06:24:08;96604.16;;;6.36;65.39
7774;BME280;3931;42.260;23.116;2023-02-17T06:26:34;96605.31;;;5.87;65.19
7774;BME280;3931;42.260;23.116;2023-02-17T06:29:01;96601.03;;;6.41;65.52
7774;BME280;3931;42.260;23.116;2023-02-17T06:31:27;96601.06;;;6.44;65.01
7774;BME280;3931;42.260;23.116;2023-02-17T06:33:54;96617.47;;;6.92;63.68
7774;BME280;3931;42.260;23.116;2023-02-17T06:36:20;96605.22;;;8.28;60.07
7774;BME280;3931;42.260;23.116;2023-02-17T06:38:46;96604.44;;;10.25;53.19
7774;BME280;3931;42.260;23.116;2023-02-17T06:41:12;96605.00;;;10.95;49.52
7774;BME280;3931;42.260;23.116;2023-02-17T06:43:38;96602.22;;;10.58;49.43
7774;BME280;3931;42.260;23.116;2023-02-17T06:46:05;96623.72;;;9.74;50.46
7774;BME280;3931;42.260;23.116;2023-02-17T06:48:31;96617.59;;;10.11;50.81
7774;BME280;3931;42.260;23.116;2023-02-17T06:50:57;96615.22;;;11.65;47.91
7774;BME280;3931;42.260;23.116;2023-02-17T06:53:23;96605.38;;;12.44;45.91
7774;BME280;3931;42.260;23.116;2023-02-17T06:55:50;96602.50;;;13.37;43.76
7774;BME280;3931;42.260;23.116;2023-02-17T06:58:16;96605.78;;;12.66;44.22
7774;BME280;3931;42.260;23.116;2023-02-17T07:00:42;96608.06;;;12.48;45.25
7774;BME280;3931;42.260;23.116;2023-02-17T07:03:08;96605.06;;;12.62;44.69
7774;BME280;3931;42.260;23.116;2023-02-17T07:05:35;96606.56;;;12.20;45.72
7774;BME280;3931;42.260;23.116;2023-02-17T07:08:01;96599.63;;;12.05;46.32
7774;BME280;3931;42.260;23.116;2023-02-17T07:10:27;96607.63;;;12.76;45.89
7774;BME280;3931;42.260;23.116;2023-02-17T07:12:53;96600.69;;;13.66;44.43
7774;BME280;3931;42.260;23.116;2023-02-17T07:15:19;96595.75;;;13.94;43.42
7774;BME280;3931;42.260;23.116;2023-02-17T07:17:45;96595.53;;;14.20;42.52
7774;BME280;3931;42.260;23.116;2023-02-17T07:20:12;96592.53;;;14.47;42.97
7774;BME280;3931;42.260;23.116;2023-02-17T07:22:38;96592.69;;;14.24;42.92
7774;BME280;3931;42.260;23.116;2023-02-17T07:25:05;96589.88;;;13.72;43.40
7774;BME280;3931;42.260;23.116;2023-02-17T07:27:32;96597.88;;;13.31;43.47
7774;BME280;3931;42.260;23.116;2023-02-17T07:29:59;96595.19;;;13.82;43.77
7774;BME280;3931;42.260;23.116;2023-02-17T07:32:25;96587.25;;;14.01;43.48
7774;BME280;3931;42.260;23.116;2023-02-17T07:34:51;96601.63;;;12.05;45.39
7774;BME280;3931;42.260;23.116;2023-02-17T07:37:18;96592.44;;;12.34;45.86
7774;BME280;3931;42.260;23.116;2023-02-17T07:39:46;96591.25;;;11.18;47.82
7774;BME280;3931;42.260;23.116;2023-02-17T07:42:12;96587.41;;;12.03;47.97
7774;BME280;3931;42.260;23.116;2023-02-17T07:44:38;96591.56;;;11.88;47.43
7774;BME280;3931;42.260;23.116;2023-02-17T07:47:04;96593.78;;;11.09;47.81
7774;BME280;3931;42.260;23.116;2023-02-17T07:49:30;96587.13;;;11.67;48.01
7774;BME280;3931;42.260;23.116;2023-02-17T07:51:56;96583.84;;;12.25;47.88
7774;BME280;3931;42.260;23.116;2023-02-17T07:54:23;96586.53;;;11.83;47.21
7774;BME280;3931;42.260;23.116;2023-02-17T07:56:49;96575.06;;;12.07;48.79
7774;BME280;3931;42.260;23.116;2023-02-17T07:59:15;96580.00;;;13.12;46.44
7774;BME280;3931;42.260;23.116;2023-02-17T08:01:41;96590.50;;;13.60;45.31
7774;BME280;3931;42.260;23.116;2023-02-17T08:04:07;96587.69;;;13.24;46.11
7774;BME280;3931;42.260;23.116;2023-02-17T08:06:33;96589.25;;;12.82;46.40
7774;BME280;3931;42.260;23.116;2023-02-17T08:08:59;96589.75;;;12.54;46.82
7774;BME280;3931;42.260;23.116;2023-02-17T08:11:44;96591.78;;;12.96;46.77
7774;BME280;3931;42.260;23.116;2023-02-17T08:14:29;96587.16;;;14.04;44.63
7774;BME280;3931;42.260;23.116;2023-02-17T08:16:56;96591.66;;;14.34;43.98
7774;BME280;3931;42.260;23.116;2023-02-17T08:19:22;96579.09;;;14.90;43.06
7774;BME280;3931;42.260;23.116;2023-02-17T08:21:48;96587.13;;;14.40;43.00
7774;BME280;3931;42.260;23.116;2023-02-17T08:24:14;96570.63;;;13.02;45.26
7774;BME280;3931;42.260;23.116;2023-02-17T08:26:41;96571.03;;;15.37;43.30
7774;BME280;3931;42.260;23.116;2023-02-17T08:29:07;96569.56;;;15.32;41.93
7774;BME280;3931;42.260;23.116;2023-02-17T08:31:35;96567.13;;;16.39;41.07
7774;BME280;3931;42.260;23.116;2023-02-17T08:34:03;96571.47;;;16.65;40.46
7774;BME280;3931;42.260;23.116;2023-02-17T08:36:29;96562.38;;;17.20;39.12
7774;BME280;3931;42.260;23.116;2023-02-17T08:38:56;96564.22;;;17.02;39.34
7774;BME280;3931;42.260;23.116;2023-02-17T08:41:23;96557.72;;;17.61;38.16
7774;BME280;3931;42.260;23.116;2023-02-17T08:43:50;96565.38;;;16.57;39.48
7774;BME280;3931;42.260;23.116;2023-02-17T08:46:18;96555.38;;;17.81;38.72
7774;BME280;3931;42.260;23.116;2023-02-17T08:48:44;96551.09;;;18.96;37.29
7774;BME280;3931;42.260;23.116;2023-02-17T08:51:11;96554.09;;;19.28;36.01
7774;BME280;3931;42.260;23.116;2023-02-17T08:53:38;96543.75;;;18.71;36.88
7774;BME280;3931;42.260;23.116;2023-02-17T08:56:04;96544.50;;;18.62;37.13
7774;BME280;3931;42.260;23.116;2023-02-17T08:58:31;96538.50;;;18.42;37.62
7774;BME280;3931;42.260;23.116;2023-02-17T09:00:57;96542.31;;;18.66;37.02
7774;BME280;3931;42.260;23.116;2023-02-17T09:03:24;96538.09;;;17.52;38.08
7774;BME280;3931;42.260;23.116;2023-02-17T09:05:52;96535.28;;;18.53;37.09
7774;BME280;3931;42.260;23.116;2023-02-17T09:08:18;96530.25;;;17.99;37.39
7774;BME280;3931;42.260;23.116;2023-02-17T09:10:44;96527.59;;;19.47;36.05
7774;BME280;3931;42.260;23.116;2023-02-17T09:13:10;96530.53;;;18.99;35.40
7774;BME280;3931;42.260;23.116;2023-02-17T09:15:37;96527.00;;;17.70;37.43
7774;BME280;3931;42.260;23.116;2023-02-17T09:18:03;96527.63;;;18.04;37.30
7774;BME280;3931;42.260;23.116;2023-02-17T09:20:30;96523.06;;;19.41;36.25
7774;BME280;3931;42.260;23.116;2023-02-17T09:22:57;96526.34;;;18.36;36.03
7774;BME280;3931;42.260;23.116;2023-02-17T09:25:23;96520.75;;;19.39;35.55
7774;BME280;3931;42.260;23.116;2023-02-17T09:27:50;96525.25;;;19.10;35.19
7774;BME280;3931;42.260;23.116;2023-02-17T09:30:16;96511.81;;;18.86;36.52
7774;BME280;3931;42.260;23.116;2023-02-17T09:32:42;96514.09;;;20.29;34.74
7774;BME280;3931;42.260;23.116;2023-02-17T09:35:10;96510.84;;;19.71;34.79
7774;BME280;3931;42.260;23.116;2023-02-17T09:37:37;96509.31;;;20.21;34.58
7774;BME280;3931;42.260;23.116;2023-02-17T09:40:04;96507.78;;;20.67;33.99
7774;BME280;3931;42.260;23.116;2023-02-17T09:42:35;96506.25;;;19.92;34.56
7774;BME280;3931;42.260;23.116;2023-02-17T09:45:06;96505.22;;;19.71;35.07
7774;BME280;3931;42.260;23.116;2023-02-17T09:47:38;96497.66;;;21.46;34.02
7774;BME280;3931;42.260;23.116;2023-02-17T09:50:07;96497.19;;;20.39;33.77
7774;BME280;3931;42.260;23.116;2023-02-17T09:52:36;96494.47;;;20.53;34.00
7774;BME280;3931;42.260;23.116;2023-02-17T09:55:08;96487.84;;;21.42;33.58
7774;BME280;3931;42.260;23.116;2023-02-17T09:57:39;96488.19;;;20.82;33.80
7774;BME280;3931;42.260;23.116;2023-02-17T10:00:08;96490.13;;;20.67;34.55
7774;BME280;3931;42.260;23.116;2023-02-17T10:02:40;96485.88;;;19.73;34.25
7774;BME280;3931;42.260;23.116;2023-02-17T10:05:13;96490.59;;;19.67;34.58
7774;BME280;3931;42.260;23.116;2023-02-17T10:07:45;96467.41;;;20.56;34.68
7774;BME280;3931;42.260;23.116;2023-02-17T10:10:17;96468.22;;;20.94;34.41
7774;BME280;3931;42.260;23.116;2023-02-17T10:12:49;96466.63;;;20.79;33.73
7774;BME280;3931;42.260;23.116;2023-02-17T10:15:20;96459.53;;;20.69;34.12
7774;BME280;3931;42.260;23.116;2023-02-17T10:17:52;96454.66;;;21.31;34.09
7774;BME280;3931;42.260;23.116;2023-02-17T10:20:23;96455.31;;;21.41;33.07
7774;BME280;3931;42.260;23.116;2023-02-17T10:22:54;96448.63;;;21.53;33.05
7774;BME280;3931;42.260;23.116;2023-02-17T10:25:39;96450.47;;;22.55;32.03
7774;BME280;3931;42.260;23.116;2023-02-17T10:28:08;96440.66;;;22.85;31.38
7774;BME280;3931;42.260;23.116;2023-02-17T10:30:39;96433.78;;;23.11;31.22
7774;BME280;3931;42.260;23.116;2023-02-17T10:33:12;96426.78;;;23.07;30.68
7774;BME280;3931;42.260;23.116;2023-02-17T10:35:48;96424.78;;;22.67;30.76
7774;BME280;3931;42.260;23.116;2023-02-17T10:38:17;96419.25;;;22.38;31.67
7774;BME280;3931;42.260;23.116;2023-02-17T10:40:54;96419.88;;;22.47;30.96
7774;BME280;3931;42.260;23.116;2023-02-17T10:43:23;96415.50;;;21.48;31.86
7774;BME280;3931;42.260;23.116;2023-02-17T10:45:50;96412.19;;;21.93;31.82
7774;BME280;3931;42.260;23.116;2023-02-17T10:48:19;96403.81;;;22.54;30.73
7774;BME280;3931;42.260;23.116;2023-02-17T10:50:47;96411.13;;;22.45;30.47
7774;BME280;3931;42.260;23.116;2023-02-17T10:53:15;96401.06;;;22.04;31.33
7774;BME280;3931;42.260;23.116;2023-02-17T10:55:52;96397.06;;;22.66;31.38
7774;BME280;3931;42.260;23.116;2023-02-17T10:58:22;96378.38;;;23.14;30.65
7774;BME280;3931;42.260;23.116;2023-02-17T11:00:52;96390.09;;;23.58;29.85
7774;BME280;3931;42.260;23.116;2023-02-17T11:03:22;96383.06;;;23.79;29.27
7774;BME280;3931;42.260;23.116;2023-02-17T11:05:53;96374.56;;;22.71;29.53
7774;BME280;3931;42.260;23.116;2023-02-17T11:08:28;96377.59;;;23.13;30.13
7774;BME280;3931;42.260;23.116;2023-02-17T11:11:00;96369.41;;;23.72;29.21
7774;BME280;3931;42.260;23.116;2023-02-17T11:13:31;96365.50;;;24.01;28.51
7774;BME280;3931;42.260;23.116;2023-02-17T11:15:59;96366.38;;;23.50;28.78
7774;BME280;3931;42.260;23.116;2023-02-17T11:18:27;96367.13;;;23.76;28.59
7774;BME280;3931;42.260;23.116;2023-02-17T11:21:00;96355.59;;;23.80;28.32
7774;BME280;3931;42.260;23.116;2023-02-17T11:23:27;96348.53;;;24.49;28.32
7774;BME280;3931;42.260;23.116;2023-02-17T11:26:06;96349.31;;;24.44;28.20
7774;BME280;3931;42.260;23.116;2023-02-17T11:28:33;96349.63;;;23.72;29.36
7774;BME280;3931;42.260;23.116;2023-02-17T11:30:59;96347.44;;;23.56;29.77
7774;BME280;3931;42.260;23.116;2023-02-17T11:33:32;96339.94;;;23.84;29.01
7774;BME280;3931;42.260;23.116;2023-02-17T11:35:59;96334.63;;;23.98;28.78
7774;BME280;3931;42.260;23.116;2023-02-17T11:38:27;96332.56;;;24.40;27.64
7774;BME280;3931;42.260;23.116;2023-02-17T11:40:55;96328.56;;;22.85;27.62
7774;BME280;3931;42.260;23.116;2023-02-17T11:43:22;96325.38;;;21.62;27.17
7774;BME280;3931;42.260;23.116;2023-02-17T11:45:56;96322.94;;;22.65;27.51
7774;BME280;3931;42.260;23.116;2023-02-17T11:48:45;96319.81;;;22.63;26.89
7774;BME280;3931;42.260;23.116;2023-02-17T11:51:16;96315.34;;;22.77;27.17
7774;BME280;3931;42.260;23.116;2023-02-17T11:53:50;96311.66;;;22.45;26.98
7774;BME280;3931;42.260;23.116;2023-02-17T11:56:22;96309.97;;;22.79;27.22
7774;BME280;3931;42.260;23.116;2023-02-17T11:59:03;96306.00;;;23.16;26.87
7774;BME280;3931;42.260;23.116;2023-02-17T12:01:47;96306.31;;;24.40;26.21
7774;BME280;3931;42.260;23.116;2023-02-17T12:04:28;96303.34;;;24.07;25.30
7774;BME280;3931;42.260;23.116;2023-02-17T12:07:19;96302.34;;;24.15;25.74
7774;BME280;3931;42.260;23.116;2023-02-17T12:09:56;96300.53;;;22.16;27.08
7774;BME280;3931;42.260;23.116;2023-02-17T12:12:29;96295.81;;;23.25;26.76
7774;BME280;3931;42.260;23.116;2023-02-17T12:15:14;96293.41;;;23.12;26.54
7774;BME280;3931;42.260;23.116;2023-02-17T12:17:54;96279.66;;;24.04;26.60
7774;BME280;3931;42.260;23.116;2023-02-17T12:20:38;96287.19;;;23.34;26.57
7774;BME280;3931;42.260;23.116;2023-02-17T12:23:18;96280.63;;;22.65;26.71
7774;BME280;3931;42.260;23.116;2023-02-17T12:25:54;96285.03;;;23.97;26.45
7774;BME280;3931;42.260;23.116;2023-02-17T12:28:39;96271.06;;;23.82;26.22
7774;BME280;3931;42.260;23.116;2023-02-17T12:31:14;96272.28;;;23.70;26.28
7774;BME280;3931;42.260;23.116;2023-02-17T12:33:52;96259.41;;;24.87;25.63
7774;BME280;3931;42.260;23.116;2023-02-17T12:36:24;96270.19;;;24.07;25.71
7774;BME280;3931;42.260;23.116;2023-02-17T12:38:54;96258.16;;;24.12;26.18
7774;BME280;3931;42.260;23.116;2023-02-17T12:41:23;96262.44;;;23.54;26.49
7774;BME280;3931;42.260;23.116;2023-02-17T12:43:52;96250.22;;;24.33;25.96
7774;BME280;3931;42.260;23.116;2023-02-17T12:46:22;96247.31;;;24.86;25.58
7774;BME280;3931;42.260;23.116;2023-02-17T12:48:52;96249.88;;;24.90;25.85
7774;BME280;3931;42.260;23.116;2023-02-17T12:51:22;96245.44;;;24.67;24.92
7774;BME280;3931;42.260;23.116;2023-02-17T12:53:53;96249.25;;;24.41;25.19
7774;BME280;3931;42.260;23.116;2023-02-17T12:56:50;96242.84;;;23.93;25.48
7774;BME280;3931;42.260;23.116;2023-02-17T12:59:21;96249.91;;;23.30;26.55
7774;BME280;3931;42.260;23.116;2023-02-17T13:01:54;96235.88;;;23.09;26.55
7774;BME280;3931;42.260;23.116;2023-02-17T13:04:24;96239.03;;;23.96;26.22
7774;BME280;3931;42.260;23.116;2023-02-17T13:06:54;96238.78;;;22.89;26.53
7774;BME280;3931;42.260;23.116;2023-02-17T13:09:28;96234.91;;;23.49;25.97
7774;BME280;3931;42.260;23.116;2023-02-17T13:12:07;96236.66;;;23.83;25.23
7774;BME280;3931;42.260;23.116;2023-02-17T13:14:39;96223.16;;;24.10;25.20
7774;BME280;3931;42.260;23.116;2023-02-17T13:17:21;96232.16;;;23.60;25.23
7774;BME280;3931;42.260;23.116;2023-02-17T13:20:06;96235.00;;;24.14;25.29
7774;BME280;3931;42.260;23.116;2023-02-17T13:22:46;96224.69;;;24.11;25.74
7774;BME280;3931;42.260;23.116;2023-02-17T13:25:26;96234.00;;;24.17;26.21
7774;BME280;3931;42.260;23.116;2023-02-17T13:27:52;96229.69;;;24.38;25.08
7774;BME280;3931;42.260;23.116;2023-02-17T13:30:28;96226.22;;;24.06;25.15
7774;BME280;3931;42.260;23.116;2023-02-17T13:33:00;96220.41;;;24.32;25.29